Weather at Philadelphia International Airport

Public forecast

Using degrees Fahrenheit for public forecast. Weather courtesy of forecast.io.

Current aviation weather report (METAR) for Philadelphia International Airport

Retrieved 2021/07/24 00:54 UTC (57 minutes ago):

KPHL 240054Z 31007KT 10SM FEW065 27/12 A3009 RMK AO2 SLP189 T02670122

Aviation forecast (TAF) for Philadelphia International Airport

Retrieved 2021-07-24 00:22 UTC (1 hour ago):

TAF KPHL 232320Z 2400/2506 32007KT P6SM SCT070 FM240200 VRB03KT P6SM SKC FM241700 19007KT P6SM SCT080 FM250000 16006KT P6SM SCT080 BKN200